sensor_id;sensor_type;location;lat;lon;timestamp;temperature;humidity
26035;DHT22;13809;48.632;11.576;2024-01-25T00:00:49;11.80;37.20
26035;DHT22;13809;48.632;11.576;2024-01-25T00:05:53;11.80;37.00
26035;DHT22;13809;48.632;11.576;2024-01-25T00:10:56;11.90;37.30
26035;DHT22;13809;48.632;11.576;2024-01-25T00:16:01;11.90;37.40
26035;DHT22;13809;48.632;11.576;2024-01-25T00:21:04;11.90;37.40
26035;DHT22;13809;48.632;11.576;2024-01-25T00:26:07;11.80;37.50
26035;DHT22;13809;48.632;11.576;2024-01-25T00:31:12;11.80;37.60
26035;DHT22;13809;48.632;11.576;2024-01-25T00:36:16;11.90;37.50
26035;DHT22;13809;48.632;11.576;2024-01-25T00:41:20;11.90;37.40
26035;DHT22;13809;48.632;11.576;2024-01-25T00:46:26;11.90;37.40
26035;DHT22;13809;48.632;11.576;2024-01-25T00:51:30;11.90;37.40
26035;DHT22;13809;48.632;11.576;2024-01-25T00:56:33;11.90;37.60
26035;DHT22;13809;48.632;11.576;2024-01-25T01:01:39;11.80;37.50
26035;DHT22;13809;48.632;11.576;2024-01-25T01:06:44;11.90;37.80
26035;DHT22;13809;48.632;11.576;2024-01-25T01:11:47;11.80;37.60
26035;DHT22;13809;48.632;11.576;2024-01-25T01:16:53;11.80;37.70
26035;DHT22;13809;48.632;11.576;2024-01-25T01:21:57;11.80;37.60
26035;DHT22;13809;48.632;11.576;2024-01-25T01:27:00;11.80;38.60
26035;DHT22;13809;48.632;11.576;2024-01-25T01:32:05;11.80;37.80
26035;DHT22;13809;48.632;11.576;2024-01-25T01:37:09;11.80;37.90
26035;DHT22;13809;48.632;11.576;2024-01-25T01:42:12;11.90;37.80
26035;DHT22;13809;48.632;11.576;2024-01-25T01:47:17;11.90;37.70
26035;DHT22;13809;48.632;11.576;2024-01-25T01:52:20;11.90;37.70
26035;DHT22;13809;48.632;11.576;2024-01-25T01:57:24;12.00;37.60
26035;DHT22;13809;48.632;11.576;2024-01-25T02:02:29;12.00;37.60
26035;DHT22;13809;48.632;11.576;2024-01-25T02:07:32;12.00;37.50
26035;DHT22;13809;48.632;11.576;2024-01-25T02:12:36;12.00;37.50
26035;DHT22;13809;48.632;11.576;2024-01-25T02:17:40;12.00;37.40
26035;DHT22;13809;48.632;11.576;2024-01-25T02:22:45;12.00;37.30
26035;DHT22;13809;48.632;11.576;2024-01-25T02:27:49;12.00;37.40
26035;DHT22;13809;48.632;11.576;2024-01-25T02:32:53;12.00;37.40
26035;DHT22;13809;48.632;11.576;2024-01-25T02:37:57;11.90;37.40
26035;DHT22;13809;48.632;11.576;2024-01-25T02:43:01;11.90;37.50
26035;DHT22;13809;48.632;11.576;2024-01-25T02:48:05;11.90;37.50
26035;DHT22;13809;48.632;11.576;2024-01-25T02:53:10;11.90;37.50
26035;DHT22;13809;48.632;11.576;2024-01-25T02:58:14;11.90;37.50
26035;DHT22;13809;48.632;11.576;2024-01-25T03:03:17;11.90;37.50
26035;DHT22;13809;48.632;11.576;2024-01-25T03:08:25;11.90;37.50
26035;DHT22;13809;48.632;11.576;2024-01-25T03:13:28;12.00;37.50
26035;DHT22;13809;48.632;11.576;2024-01-25T03:18:32;12.00;37.60
26035;DHT22;13809;48.632;11.576;2024-01-25T03:23:39;12.00;37.50
26035;DHT22;13809;48.632;11.576;2024-01-25T03:28:42;12.00;37.60
26035;DHT22;13809;48.632;11.576;2024-01-25T03:33:45;12.00;37.60
26035;DHT22;13809;48.632;11.576;2024-01-25T03:38:50;12.00;37.60
26035;DHT22;13809;48.632;11.576;2024-01-25T03:43:53;11.90;37.60
26035;DHT22;13809;48.632;11.576;2024-01-25T03:48:56;11.90;37.60
26035;DHT22;13809;48.632;11.576;2024-01-25T03:54:01;11.90;37.60
26035;DHT22;13809;48.632;11.576;2024-01-25T03:59:04;12.00;37.70
26035;DHT22;13809;48.632;11.576;2024-01-25T04:04:12;11.90;37.60
26035;DHT22;13809;48.632;11.576;2024-01-25T04:09:18;11.90;37.60
26035;DHT22;13809;48.632;11.576;2024-01-25T04:14:22;11.90;37.50
26035;DHT22;13809;48.632;11.576;2024-01-25T04:19:25;11.90;37.50
26035;DHT22;13809;48.632;11.576;2024-01-25T04:24:30;11.90;37.70
26035;DHT22;13809;48.632;11.576;2024-01-25T04:29:33;11.80;37.60
26035;DHT22;13809;48.632;11.576;2024-01-25T04:34:37;11.80;37.80
26035;DHT22;13809;48.632;11.576;2024-01-25T04:39:42;11.80;37.60
26035;DHT22;13809;48.632;11.576;2024-01-25T04:44:45;11.80;37.70
26035;DHT22;13809;48.632;11.576;2024-01-25T04:49:48;11.80;37.60
26035;DHT22;13809;48.632;11.576;2024-01-25T04:54:53;11.80;37.70
26035;DHT22;13809;48.632;11.576;2024-01-25T04:59:56;11.80;37.80
26035;DHT22;13809;48.632;11.576;2024-01-25T05:04:59;11.70;37.50
26035;DHT22;13809;48.632;11.576;2024-01-25T05:10:05;11.70;37.70
26035;DHT22;13809;48.632;11.576;2024-01-25T05:15:08;11.70;37.80
26035;DHT22;13809;48.632;11.576;2024-01-25T05:20:12;11.60;37.60
26035;DHT22;13809;48.632;11.576;2024-01-25T05:25:18;11.60;37.60
26035;DHT22;13809;48.632;11.576;2024-01-25T05:30:22;11.60;37.80
26035;DHT22;13809;48.632;11.576;2024-01-25T05:35:26;11.60;37.80
26035;DHT22;13809;48.632;11.576;2024-01-25T05:40:30;11.60;37.80
26035;DHT22;13809;48.632;11.576;2024-01-25T05:45:34;11.60;37.80
26035;DHT22;13809;48.632;11.576;2024-01-25T05:50:40;11.60;37.90
26035;DHT22;13809;48.632;11.576;2024-01-25T05:55:44;11.60;37.80
26035;DHT22;13809;48.632;11.576;2024-01-25T06:00:48;11.50;37.60
26035;DHT22;13809;48.632;11.576;2024-01-25T06:05:51;11.60;37.70
26035;DHT22;13809;48.632;11.576;2024-01-25T06:10:56;11.50;37.70
26035;DHT22;13809;48.632;11.576;2024-01-25T06:16:00;11.50;37.70
26035;DHT22;13809;48.632;11.576;2024-01-25T06:21:03;11.50;37.90
26035;DHT22;13809;48.632;11.576;2024-01-25T06:26:08;11.40;37.70
26035;DHT22;13809;48.632;11.576;2024-01-25T06:31:11;11.40;37.70
26035;DHT22;13809;48.632;11.576;2024-01-25T06:36:16;11.40;37.50
26035;DHT22;13809;48.632;11.576;2024-01-25T06:41:20;11.40;37.60
26035;DHT22;13809;48.632;11.576;2024-01-25T06:46:24;11.30;37.50
26035;DHT22;13809;48.632;11.576;2024-01-25T06:51:27;11.20;37.60
26035;DHT22;13809;48.632;11.576;2024-01-25T06:56:32;11.20;37.70
26035;DHT22;13809;48.632;11.576;2024-01-25T07:01:36;11.20;37.70
26035;DHT22;13809;48.632;11.576;2024-01-25T07:06:40;11.20;37.70
26035;DHT22;13809;48.632;11.576;2024-01-25T07:11:45;11.10;37.60
26035;DHT22;13809;48.632;11.576;2024-01-25T07:16:50;11.10;37.70
26035;DHT22;13809;48.632;11.576;2024-01-25T07:21:53;11.10;37.80
26035;DHT22;13809;48.632;11.576;2024-01-25T07:26:58;11.00;37.80
26035;DHT22;13809;48.632;11.576;2024-01-25T07:32:02;11.00;37.80
26035;DHT22;13809;48.632;11.576;2024-01-25T07:37:05;11.00;37.80
26035;DHT22;13809;48.632;11.576;2024-01-25T07:42:09;10.90;37.70
26035;DHT22;13809;48.632;11.576;2024-01-25T07:47:13;10.90;37.70
26035;DHT22;13809;48.632;11.576;2024-01-25T07:52:16;10.90;37.80
26035;DHT22;13809;48.632;11.576;2024-01-25T07:57:21;10.80;37.90
26035;DHT22;13809;48.632;11.576;2024-01-25T08:02:24;10.80;37.90
26035;DHT22;13809;48.632;11.576;2024-01-25T08:07:28;10.90;37.90
26035;DHT22;13809;48.632;11.576;2024-01-25T08:12:33;10.90;38.20
26035;DHT22;13809;48.632;11.576;2024-01-25T08:17:37;11.00;38.30
26035;DHT22;13809;48.632;11.576;2024-01-25T08:22:40;11.10;38.10
26035;DHT22;13809;48.632;11.576;2024-01-25T08:27:45;11.20;38.10
26035;DHT22;13809;48.632;11.576;2024-01-25T08:32:48;11.30;38.00
26035;DHT22;13809;48.632;11.576;2024-01-25T08:37:53;11.40;38.00
26035;DHT22;13809;48.632;11.576;2024-01-25T08:42:58;11.50;38.20
26035;DHT22;13809;48.632;11.576;2024-01-25T08:48:01;11.60;37.90
26035;DHT22;13809;48.632;11.576;2024-01-25T08:53:05;11.80;38.10
26035;DHT22;13809;48.632;11.576;2024-01-25T08:58:09;11.90;38.00
26035;DHT22;13809;48.632;11.576;2024-01-25T09:03:13;12.00;37.50
26035;DHT22;13809;48.632;11.576;2024-01-25T09:08:16;12.10;37.40
26035;DHT22;13809;48.632;11.576;2024-01-25T09:13:21;12.20;36.80
26035;DHT22;13809;48.632;11.576;2024-01-25T09:18:25;12.10;36.70
26035;DHT22;13809;48.632;11.576;2024-01-25T09:23:28;12.10;36.80
26035;DHT22;13809;48.632;11.576;2024-01-25T09:28:33;12.10;36.60
26035;DHT22;13809;48.632;11.576;2024-01-25T09:33:36;12.10;36.10
26035;DHT22;13809;48.632;11.576;2024-01-25T09:38:41;12.10;36.50
26035;DHT22;13809;48.632;11.576;2024-01-25T09:43:46;12.10;36.70
26035;DHT22;13809;48.632;11.576;2024-01-25T09:48:49;12.10;36.30
26035;DHT22;13809;48.632;11.576;2024-01-25T09:53:54;12.10;36.60
26035;DHT22;13809;48.632;11.576;2024-01-25T09:58:59;12.10;36.50
26035;DHT22;13809;48.632;11.576;2024-01-25T10:04:06;12.10;36.30
26035;DHT22;13809;48.632;11.576;2024-01-25T10:09:09;12.10;36.60
26035;DHT22;13809;48.632;11.576;2024-01-25T10:14:17;12.10;36.40
26035;DHT22;13809;48.632;11.576;2024-01-25T10:19:20;12.10;35.70
26035;DHT22;13809;48.632;11.576;2024-01-25T10:24:24;12.10;35.90
26035;DHT22;13809;48.632;11.576;2024-01-25T10:29:29;12.00;35.60
26035;DHT22;13809;48.632;11.576;2024-01-25T10:34:35;12.00;35.40
26035;DHT22;13809;48.632;11.576;2024-01-25T10:39:39;12.00;35.60
26035;DHT22;13809;48.632;11.576;2024-01-25T10:44:45;12.00;35.40
26035;DHT22;13809;48.632;11.576;2024-01-25T10:49:49;12.00;35.20
26035;DHT22;13809;48.632;11.576;2024-01-25T10:54:53;12.20;35.70
26035;DHT22;13809;48.632;11.576;2024-01-25T10:59:57;12.30;35.70
26035;DHT22;13809;48.632;11.576;2024-01-25T11:05:01;12.30;35.80
26035;DHT22;13809;48.632;11.576;2024-01-25T11:10:06;12.40;35.90
26035;DHT22;13809;48.632;11.576;2024-01-25T11:15:21;12.50;35.30
26035;DHT22;13809;48.632;11.576;2024-01-25T11:20:26;12.60;33.90
26035;DHT22;13809;48.632;11.576;2024-01-25T11:25:30;12.60;34.60
26035;DHT22;13809;48.632;11.576;2024-01-25T11:30:36;12.50;35.20
26035;DHT22;13809;48.632;11.576;2024-01-25T11:35:39;12.60;35.00
26035;DHT22;13809;48.632;11.576;2024-01-25T11:40:44;12.60;35.20
26035;DHT22;13809;48.632;11.576;2024-01-25T11:45:49;12.70;34.60
26035;DHT22;13809;48.632;11.576;2024-01-25T11:50:53;12.70;34.00
26035;DHT22;13809;48.632;11.576;2024-01-25T11:55:56;12.70;33.70
26035;DHT22;13809;48.632;11.576;2024-01-25T12:01:04;12.60;33.70
26035;DHT22;13809;48.632;11.576;2024-01-25T12:06:10;12.60;33.00
26035;DHT22;13809;48.632;11.576;2024-01-25T12:11:14;12.60;34.20
26035;DHT22;13809;48.632;11.576;2024-01-25T12:16:19;12.70;34.40
26035;DHT22;13809;48.632;11.576;2024-01-25T12:21:23;12.70;34.30
26035;DHT22;13809;48.632;11.576;2024-01-25T12:26:26;12.80;33.80
26035;DHT22;13809;48.632;11.576;2024-01-25T12:31:31;12.90;34.10
26035;DHT22;13809;48.632;11.576;2024-01-25T12:36:34;12.90;33.80
26035;DHT22;13809;48.632;11.576;2024-01-25T12:41:38;12.90;34.30
26035;DHT22;13809;48.632;11.576;2024-01-25T12:46:43;13.00;34.30
26035;DHT22;13809;48.632;11.576;2024-01-25T12:51:47;13.00;33.80
26035;DHT22;13809;48.632;11.576;2024-01-25T12:56:53;13.00;34.10
26035;DHT22;13809;48.632;11.576;2024-01-25T13:01:57;13.00;33.90
26035;DHT22;13809;48.632;11.576;2024-01-25T13:07:01;13.00;33.80
26035;DHT22;13809;48.632;11.576;2024-01-25T13:12:04;12.90;34.10
26035;DHT22;13809;48.632;11.576;2024-01-25T13:17:09;12.90;34.20
26035;DHT22;13809;48.632;11.576;2024-01-25T13:22:12;12.90;34.00
26035;DHT22;13809;48.632;11.576;2024-01-25T13:27:16;12.90;33.90
26035;DHT22;13809;48.632;11.576;2024-01-25T13:32:20;12.90;34.00
26035;DHT22;13809;48.632;11.576;2024-01-25T13:37:24;12.90;33.60
26035;DHT22;13809;48.632;11.576;2024-01-25T13:42:27;13.00;33.90
26035;DHT22;13809;48.632;11.576;2024-01-25T13:47:31;13.00;33.90
26035;DHT22;13809;48.632;11.576;2024-01-25T13:52:34;13.00;33.40
26035;DHT22;13809;48.632;11.576;2024-01-25T13:57:38;13.00;33.20
26035;DHT22;13809;48.632;11.576;2024-01-25T14:02:42;13.10;33.70
26035;DHT22;13809;48.632;11.576;2024-01-25T14:07:47;13.00;33.00
26035;DHT22;13809;48.632;11.576;2024-01-25T14:12:50;13.10;33.40
26035;DHT22;13809;48.632;11.576;2024-01-25T14:17:56;13.10;33.40
26035;DHT22;13809;48.632;11.576;2024-01-25T14:22:59;13.10;33.10
26035;DHT22;13809;48.632;11.576;2024-01-25T14:28:03;13.10;33.50
26035;DHT22;13809;48.632;11.576;2024-01-25T14:33:08;13.10;33.50
26035;DHT22;13809;48.632;11.576;2024-01-25T14:38:11;13.10;33.30
26035;DHT22;13809;48.632;11.576;2024-01-25T14:43:15;13.10;33.60
26035;DHT22;13809;48.632;11.576;2024-01-25T14:48:19;13.10;33.70
26035;DHT22;13809;48.632;11.576;2024-01-25T14:53:23;13.20;33.40
26035;DHT22;13809;48.632;11.576;2024-01-25T14:58:26;13.20;33.70
26035;DHT22;13809;48.632;11.576;2024-01-25T15:03:32;13.10;33.60
26035;DHT22;13809;48.632;11.576;2024-01-25T15:08:35;13.10;33.70
26035;DHT22;13809;48.632;11.576;2024-01-25T15:13:38;13.00;33.90
26035;DHT22;13809;48.632;11.576;2024-01-25T15:18:43;13.00;33.90
26035;DHT22;13809;48.632;11.576;2024-01-25T15:23:46;13.00;33.70
26035;DHT22;13809;48.632;11.576;2024-01-25T15:28:51;13.00;33.90
26035;DHT22;13809;48.632;11.576;2024-01-25T15:33:55;12.90;33.80
26035;DHT22;13809;48.632;11.576;2024-01-25T15:38:59;12.90;34.00
26035;DHT22;13809;48.632;11.576;2024-01-25T15:44:05;12.90;34.50
26035;DHT22;13809;48.632;11.576;2024-01-25T15:49:09;13.00;34.00
26035;DHT22;13809;48.632;11.576;2024-01-25T15:54:12;13.00;33.60
26035;DHT22;13809;48.632;11.576;2024-01-25T15:59:16;13.00;33.70
26035;DHT22;13809;48.632;11.576;2024-01-25T16:04:20;13.00;34.10
26035;DHT22;13809;48.632;11.576;2024-01-25T16:09:23;12.90;34.60
26035;DHT22;13809;48.632;11.576;2024-01-25T16:14:27;12.90;34.10
26035;DHT22;13809;48.632;11.576;2024-01-25T16:19:31;13.00;34.20
26035;DHT22;13809;48.632;11.576;2024-01-25T16:24:35;13.00;34.10
26035;DHT22;13809;48.632;11.576;2024-01-25T16:29:38;13.00;34.10
26035;DHT22;13809;48.632;11.576;2024-01-25T16:34:42;13.00;34.30
26035;DHT22;13809;48.632;11.576;2024-01-25T16:39:46;13.10;34.10
26035;DHT22;13809;48.632;11.576;2024-01-25T16:44:49;13.10;34.10
26035;DHT22;13809;48.632;11.576;2024-01-25T16:49:54;13.00;34.10
26035;DHT22;13809;48.632;11.576;2024-01-25T16:54:58;13.10;33.90
26035;DHT22;13809;48.632;11.576;2024-01-25T17:00:01;13.00;33.70
26035;DHT22;13809;48.632;11.576;2024-01-25T17:05:06;12.90;33.80
26035;DHT22;13809;48.632;11.576;2024-01-25T17:10:09;12.80;33.50
26035;DHT22;13809;48.632;11.576;2024-01-25T17:15:13;12.70;33.70
26035;DHT22;13809;48.632;11.576;2024-01-25T17:20:19;12.60;33.70
26035;DHT22;13809;48.632;11.576;2024-01-25T17:25:24;12.50;33.60
26035;DHT22;13809;48.632;11.576;2024-01-25T17:30:27;12.30;33.70
26035;DHT22;13809;48.632;11.576;2024-01-25T17:35:32;12.20;34.00
26035;DHT22;13809;48.632;11.576;2024-01-25T17:40:35;12.10;34.10
26035;DHT22;13809;48.632;11.576;2024-01-25T17:45:38;12.00;33.90
26035;DHT22;13809;48.632;11.576;2024-01-25T17:50:43;11.90;34.10
26035;DHT22;13809;48.632;11.576;2024-01-25T17:55:46;11.90;34.20
26035;DHT22;13809;48.632;11.576;2024-01-25T18:00:49;11.90;34.20
26035;DHT22;13809;48.632;11.576;2024-01-25T18:05:55;11.80;34.10
26035;DHT22;13809;48.632;11.576;2024-01-25T18:10:58;11.80;34.30
26035;DHT22;13809;48.632;11.576;2024-01-25T18:16:02;11.70;34.20
26035;DHT22;13809;48.632;11.576;2024-01-25T18:21:07;11.60;34.20
26035;DHT22;13809;48.632;11.576;2024-01-25T18:26:11;11.50;34.10
26035;DHT22;13809;48.632;11.576;2024-01-25T18:31:14;11.20;34.20
26035;DHT22;13809;48.632;11.576;2024-01-25T18:36:19;11.10;34.50
26035;DHT22;13809;48.632;11.576;2024-01-25T18:41:22;11.00;34.80
26035;DHT22;13809;48.632;11.576;2024-01-25T18:46:25;11.00;34.80
26035;DHT22;13809;48.632;11.576;2024-01-25T18:51:29;11.00;34.80
26035;DHT22;13809;48.632;11.576;2024-01-25T18:56:33;10.90;34.90
26035;DHT22;13809;48.632;11.576;2024-01-25T19:01:37;11.00;34.90
26035;DHT22;13809;48.632;11.576;2024-01-25T19:06:47;11.00;35.00
26035;DHT22;13809;48.632;11.576;2024-01-25T19:11:53;11.00;35.20
26035;DHT22;13809;48.632;11.576;2024-01-25T19:16:56;11.00;35.00
26035;DHT22;13809;48.632;11.576;2024-01-25T19:22:01;11.00;34.90
26035;DHT22;13809;48.632;11.576;2024-01-25T19:27:05;11.00;35.10
26035;DHT22;13809;48.632;11.576;2024-01-25T19:32:08;11.00;34.90
26035;DHT22;13809;48.632;11.576;2024-01-25T19:37:13;10.90;34.90
26035;DHT22;13809;48.632;11.576;2024-01-25T19:42:17;10.90;35.10
26035;DHT22;13809;48.632;11.576;2024-01-25T19:47:20;10.80;35.10
26035;DHT22;13809;48.632;11.576;2024-01-25T19:52:25;10.80;35.10
26035;DHT22;13809;48.632;11.576;2024-01-25T19:57:29;10.80;35.20
26035;DHT22;13809;48.632;11.576;2024-01-25T20:02:33;10.80;35.20
26035;DHT22;13809;48.632;11.576;2024-01-25T20:07:38;10.70;35.20
26035;DHT22;13809;48.632;11.576;2024-01-25T20:12:42;10.70;35.40
26035;DHT22;13809;48.632;11.576;2024-01-25T20:17:45;10.60;35.20
26035;DHT22;13809;48.632;11.576;2024-01-25T20:22:51;10.60;35.20
26035;DHT22;13809;48.632;11.576;2024-01-25T20:27:54;10.60;35.40
26035;DHT22;13809;48.632;11.576;2024-01-25T20:32:58;10.60;35.30
26035;DHT22;13809;48.632;11.576;2024-01-25T20:38:03;10.50;35.30
26035;DHT22;13809;48.632;11.576;2024-01-25T20:43:06;10.50;35.60
26035;DHT22;13809;48.632;11.576;2024-01-25T20:48:10;10.40;35.50
26035;DHT22;13809;48.632;11.576;2024-01-25T20:53:16;10.40;35.60
26035;DHT22;13809;48.632;11.576;2024-01-25T20:58:19;10.40;35.70
26035;DHT22;13809;48.632;11.576;2024-01-25T21:03:23;10.40;35.60
26035;DHT22;13809;48.632;11.576;2024-01-25T21:08:29;10.40;35.80
26035;DHT22;13809;48.632;11.576;2024-01-25T21:13:33;10.40;35.90
26035;DHT22;13809;48.632;11.576;2024-01-25T21:18:36;10.30;35.60
26035;DHT22;13809;48.632;11.576;2024-01-25T21:23:42;10.20;35.70
26035;DHT22;13809;48.632;11.576;2024-01-25T21:28:46;10.20;35.90
26035;DHT22;13809;48.632;11.576;2024-01-25T21:33:49;10.10;35.90
26035;DHT22;13809;48.632;11.576;2024-01-25T21:38:54;10.00;36.00
26035;DHT22;13809;48.632;11.576;2024-01-25T21:43:57;10.00;36.30
26035;DHT22;13809;48.632;11.576;2024-01-25T21:49:01;9.90;37.50
26035;DHT22;13809;48.632;11.576;2024-01-25T21:54:05;9.90;38.50
26035;DHT22;13809;48.632;11.576;2024-01-25T21:59:09;9.90;39.50
26035;DHT22;13809;48.632;11.576;2024-01-25T22:04:12;10.00;38.50
26035;DHT22;13809;48.632;11.576;2024-01-25T22:09:18;10.10;38.80
26035;DHT22;13809;48.632;11.576;2024-01-25T22:14:21;10.10;39.30
26035;DHT22;13809;48.632;11.576;2024-01-25T22:19:24;10.20;38.90
26035;DHT22;13809;48.632;11.576;2024-01-25T22:24:29;10.20;38.90
26035;DHT22;13809;48.632;11.576;2024-01-25T22:29:33;10.30;39.50
26035;DHT22;13809;48.632;11.576;2024-01-25T22:34:37;10.40;39.00
26035;DHT22;13809;48.632;11.576;2024-01-25T22:39:42;10.40;38.90
26035;DHT22;13809;48.632;11.576;2024-01-25T22:44:45;10.50;39.40
26035;DHT22;13809;48.632;11.576;2024-01-25T22:49:48;10.60;39.00
26035;DHT22;13809;48.632;11.576;2024-01-25T22:54:53;10.60;38.90
26035;DHT22;13809;48.632;11.576;2024-01-25T22:59:57;10.60;39.30
26035;DHT22;13809;48.632;11.576;2024-01-25T23:05:00;10.60;38.90
26035;DHT22;13809;48.632;11.576;2024-01-25T23:10:06;10.60;38.90
26035;DHT22;13809;48.632;11.576;2024-01-25T23:15:09;10.60;39.60
26035;DHT22;13809;48.632;11.576;2024-01-25T23:20:13;10.60;39.00
26035;DHT22;13809;48.632;11.576;2024-01-25T23:25:18;10.50;39.10
26035;DHT22;13809;48.632;11.576;2024-01-25T23:30:21;10.50;39.70
26035;DHT22;13809;48.632;11.576;2024-01-25T23:35:24;10.40;39.40
26035;DHT22;13809;48.632;11.576;2024-01-25T23:40:29;10.40;39.60
26035;DHT22;13809;48.632;11.576;2024-01-25T23:45:33;10.40;40.30
26035;DHT22;13809;48.632;11.576;2024-01-25T23:50:37;10.50;39.60
26035;DHT22;13809;48.632;11.576;2024-01-25T23:55:43;10.50;39.60
